createdAt,value
2018-07-19T00:01:54.556Z,1.27
2018-07-19T00:04:23.422Z,1.23
2018-07-19T00:06:52.427Z,1.30
2018-07-19T00:09:21.727Z,1.33
2018-07-19T00:11:50.692Z,1.60
2018-07-19T00:14:19.772Z,1.40
2018-07-19T00:16:48.854Z,1.43
2018-07-19T00:19:17.927Z,1.30
2018-07-19T00:21:47.073Z,1.47
2018-07-19T00:24:16.329Z,1.57
2018-07-19T00:26:45.219Z,1.30
2018-07-19T00:29:14.147Z,1.40
2018-07-19T00:31:43.243Z,1.43
2018-07-19T00:34:12.310Z,1.33
2018-07-19T00:36:41.387Z,1.13
2018-07-19T00:39:10.455Z,1.60
2018-07-19T00:41:43.763Z,1.50
2018-07-19T00:44:13.116Z,1.20
2018-07-19T00:46:42.217Z,1.50
2018-07-19T00:49:11.280Z,1.60
2018-07-19T00:51:40.350Z,1.60
2018-07-19T00:54:09.419Z,1.60
2018-07-19T00:56:38.491Z,1.67
2018-07-19T00:59:07.551Z,1.40
2018-07-19T01:01:36.432Z,1.60
2018-07-19T01:04:05.691Z,1.60
2018-07-19T01:06:34.771Z,1.50
2018-07-19T01:09:05.131Z,1.83
2018-07-19T01:11:34.234Z,1.43
2018-07-19T01:14:03.327Z,1.70
2018-07-19T01:16:32.413Z,1.60
2018-07-19T01:19:01.503Z,1.50
2018-07-19T01:21:30.836Z,1.40
2018-07-19T01:24:00.126Z,1.70
2018-07-19T01:26:29.216Z,1.47
2018-07-19T01:28:58.272Z,1.80
2018-07-19T01:31:27.371Z,2.10
2018-07-19T01:33:56.467Z,1.70
2018-07-19T01:36:25.331Z,1.57
2018-07-19T01:38:54.272Z,1.73
2018-07-19T01:41:36.395Z,1.70
2018-07-19T01:44:05.463Z,1.80
2018-07-19T01:46:34.556Z,1.80
2018-07-19T01:49:03.625Z,2.10
2018-07-19T01:51:32.674Z,1.97
2018-07-19T01:54:01.761Z,2.00
2018-07-19T01:56:30.837Z,2.10
2018-07-19T01:58:59.912Z,2.00
2018-07-19T02:01:28.766Z,2.17
2018-07-19T02:03:57.731Z,2.13
2018-07-19T02:06:26.791Z,2.00
2018-07-19T02:08:56.044Z,2.00
2018-07-19T02:11:25.000Z,1.73
2018-07-19T02:13:54.091Z,1.93
2018-07-19T02:16:22.895Z,1.87
2018-07-19T02:18:51.634Z,2.07
2018-07-19T02:21:20.579Z,1.77
2018-07-19T02:23:49.656Z,2.23
2018-07-19T02:26:18.501Z,2.10
2018-07-19T02:28:47.455Z,2.10
2018-07-19T02:31:16.560Z,2.30
2018-07-19T02:33:45.956Z,1.97
2018-07-19T02:36:14.991Z,2.33
2018-07-19T02:38:43.955Z,2.37
2018-07-19T02:41:13.012Z,2.20
2018-07-19T02:43:41.881Z,2.23
2018-07-19T02:46:10.796Z,2.20
2018-07-19T02:48:39.876Z,2.50
2018-07-19T02:51:08.996Z,2.23
2018-07-19T02:53:38.095Z,2.67
2018-07-19T02:56:07.171Z,2.17
2018-07-19T02:58:36.243Z,2.20
2018-07-19T03:01:06.135Z,2.93
2018-07-19T03:03:35.216Z,2.20
2018-07-19T03:06:04.970Z,2.10
2018-07-19T03:08:34.171Z,2.30
2018-07-19T03:11:03.251Z,2.50
2018-07-19T03:13:32.339Z,2.57
2018-07-19T03:16:01.411Z,2.47
2018-07-19T03:18:31.516Z,2.60
2018-07-19T03:21:00.395Z,2.37
2018-07-19T03:23:29.571Z,2.37
2018-07-19T03:25:58.630Z,3.27
2018-07-19T03:28:27.689Z,2.63
2018-07-19T03:30:56.626Z,2.27
2018-07-19T03:33:25.507Z,2.30
2018-07-19T03:35:54.575Z,2.43
2018-07-19T03:38:23.379Z,2.30
2018-07-19T03:40:52.349Z,2.17
2018-07-19T03:43:21.162Z,3.07
2018-07-19T03:45:50.116Z,2.70
2018-07-19T03:48:19.207Z,2.47
2018-07-19T03:50:48.283Z,2.60
2018-07-19T03:53:17.355Z,2.57
2018-07-19T03:55:46.451Z,2.60
2018-07-19T03:58:15.511Z,2.50
2018-07-19T04:00:44.599Z,2.93
2018-07-19T04:03:13.660Z,3.00
2018-07-19T04:05:42.751Z,2.70
2018-07-19T04:08:11.812Z,3.33
2018-07-19T04:10:40.944Z,3.07
2018-07-19T04:13:10.023Z,2.90
2018-07-19T04:15:39.136Z,2.90
2018-07-19T04:18:08.267Z,3.30
2018-07-19T04:20:37.339Z,3.20
2018-07-19T04:23:06.411Z,3.37
2018-07-19T04:25:35.511Z,3.30
2018-07-19T04:28:04.584Z,3.40
2018-07-19T04:30:33.673Z,2.90
2018-07-19T04:33:02.732Z,3.07
2018-07-19T04:35:31.827Z,3.20
2018-07-19T04:38:00.883Z,3.30
2018-07-19T04:40:29.963Z,2.90
2018-07-19T04:42:59.038Z,3.10
2018-07-19T04:45:27.878Z,2.80
2018-07-19T04:47:56.832Z,3.23
2018-07-19T04:50:25.667Z,2.80
2018-07-19T04:52:54.608Z,2.90
2018-07-19T04:55:23.736Z,3.60
2018-07-19T04:57:52.888Z,3.20
2018-07-19T05:00:21.956Z,3.33
2018-07-19T05:02:51.048Z,2.70
2018-07-19T05:05:20.248Z,2.70
2018-07-19T05:07:49.343Z,3.23
2018-07-19T05:10:18.419Z,2.97
2018-07-19T05:12:47.519Z,2.93
2018-07-19T05:15:16.583Z,2.90
2018-07-19T05:17:46.227Z,2.70
2018-07-19T05:20:14.923Z,2.70
2018-07-19T05:22:43.883Z,2.83
2018-07-19T05:25:12.711Z,2.83
2018-07-19T05:27:41.679Z,2.73
2018-07-19T05:30:10.820Z,2.50
2018-07-19T05:32:39.908Z,2.67
2018-07-19T05:35:08.980Z,2.70
2018-07-19T05:37:38.088Z,2.63
2018-07-19T05:40:07.183Z,2.20
2018-07-19T05:42:36.284Z,2.50
2018-07-19T05:45:05.400Z,2.60
2018-07-19T05:47:34.495Z,2.47
2018-07-19T05:50:03.569Z,2.50
2018-07-19T05:52:32.667Z,2.20
2018-07-19T05:55:01.860Z,2.10
2018-07-19T05:57:30.943Z,2.23
2018-07-19T06:00:00.328Z,1.90
2018-07-19T06:02:29.427Z,2.10
2018-07-19T06:04:58.499Z,2.10
2018-07-19T06:07:27.339Z,2.17
2018-07-19T06:09:56.300Z,2.30
2018-07-19T06:12:25.155Z,1.70
2018-07-19T06:14:54.099Z,2.53
2018-07-19T06:17:23.190Z,1.70
2018-07-19T06:19:52.272Z,1.80
2018-07-19T06:22:21.416Z,2.13
2018-07-19T06:24:50.485Z,2.10
2018-07-19T06:27:19.599Z,1.90
2018-07-19T06:29:48.670Z,1.90
2018-07-19T06:32:17.515Z,2.30
2018-07-19T06:34:46.476Z,1.83
2018-07-19T06:37:15.548Z,1.80
2018-07-19T06:39:44.647Z,1.80
2018-07-19T06:42:13.731Z,1.90
2018-07-19T06:44:42.601Z,1.50
2018-07-19T06:47:11.716Z,2.07
2018-07-19T06:49:40.829Z,1.57
2018-07-19T06:52:09.912Z,1.60
2018-07-19T06:54:39.178Z,2.10
2018-07-19T06:57:08.540Z,1.93
2018-07-19T06:59:37.640Z,1.83
2018-07-19T07:02:07.068Z,2.30
2018-07-19T07:04:36.151Z,2.13
2018-07-19T07:07:05.456Z,2.07
2018-07-19T07:09:34.617Z,2.30
2018-07-19T07:12:03.472Z,1.90
2018-07-19T07:14:32.440Z,2.00
2018-07-19T07:17:01.531Z,2.00
2018-07-19T07:19:30.623Z,2.53
2018-07-19T07:21:59.696Z,2.03
2018-07-19T07:24:28.943Z,2.20
2018-07-19T07:26:58.013Z,2.30
2018-07-19T07:29:27.104Z,2.73
2018-07-19T07:31:56.195Z,2.40
2018-07-19T07:34:25.296Z,2.30
2018-07-19T07:36:54.352Z,2.60
2018-07-19T07:39:23.440Z,2.40
2018-07-19T07:41:52.507Z,2.10
2018-07-19T07:44:21.872Z,1.83
2018-07-19T07:46:50.939Z,1.93
2018-07-19T07:49:20.040Z,2.20
2018-07-19T07:51:49.096Z,2.63
2018-07-19T07:54:18.244Z,2.10
2018-07-19T07:56:47.284Z,2.47
2018-07-19T07:59:16.370Z,2.60
2018-07-19T08:01:45.440Z,2.30
2018-07-19T08:04:14.242Z,2.53
2018-07-19T08:06:43.213Z,2.53
2018-07-19T08:09:12.024Z,1.90
2018-07-19T08:11:41.004Z,2.10
2018-07-19T08:14:10.076Z,2.30
2018-07-19T08:16:38.944Z,2.53
2018-07-19T08:19:07.880Z,2.57
2018-07-19T08:21:37.017Z,2.10
2018-07-19T08:24:06.072Z,2.37
2018-07-19T08:26:35.332Z,2.30
2018-07-19T08:29:04.446Z,2.43
2018-07-19T08:31:33.508Z,2.60
2018-07-19T08:34:02.585Z,2.10
2018-07-19T08:36:31.676Z,2.23
2018-07-19T08:39:00.756Z,2.33
2018-07-19T08:41:29.828Z,2.23
2018-07-19T08:43:58.887Z,1.80
2018-07-19T08:46:28.779Z,2.30
2018-07-19T08:48:57.840Z,2.10
2018-07-19T08:51:26.919Z,2.63
2018-07-19T08:53:56.007Z,2.17
2018-07-19T08:56:25.104Z,2.30
2018-07-19T08:58:54.160Z,1.97
2018-07-19T09:01:23.612Z,1.77
2018-07-19T09:03:52.563Z,1.80
2018-07-19T09:06:21.515Z,2.10
2018-07-19T09:08:50.593Z,2.20
2018-07-19T09:11:19.824Z,1.70
2018-07-19T09:13:48.888Z,1.90
2018-07-19T09:16:17.984Z,1.70
2018-07-19T09:18:47.040Z,1.93
2018-07-19T09:21:16.140Z,2.00
2018-07-19T09:23:45.232Z,2.20
2018-07-19T09:26:14.316Z,1.83
2018-07-19T09:28:43.391Z,1.53
2018-07-19T09:31:12.471Z,2.03
2018-07-19T09:33:41.664Z,1.60
2018-07-19T09:36:10.736Z,1.30
2018-07-19T09:38:39.880Z,1.33
2018-07-19T09:41:08.924Z,1.23
2018-07-19T09:43:38.054Z,1.70
2018-07-19T09:46:07.099Z,2.00
2018-07-19T09:48:36.208Z,1.60
2018-07-19T09:51:05.268Z,1.60
2018-07-19T09:53:34.369Z,1.37
2018-07-19T09:56:03.195Z,1.67
2018-07-19T09:58:31.903Z,1.50
2018-07-19T10:01:02.127Z,1.60
2018-07-19T10:03:31.231Z,1.90
2018-07-19T10:06:00.295Z,2.17
2018-07-19T10:08:29.373Z,1.40
2018-07-19T10:10:58.464Z,2.90
2018-07-19T10:13:27.296Z,3.63
2018-07-19T10:15:56.241Z,2.10
2018-07-19T10:18:25.340Z,1.80
2018-07-19T10:20:54.172Z,1.70
2018-07-19T10:23:23.144Z,1.50
2018-07-19T10:25:52.223Z,1.40
2018-07-19T10:28:21.327Z,2.70
2018-07-19T10:30:50.408Z,2.60
2018-07-19T10:33:19.318Z,3.70
2018-07-19T10:35:48.271Z,2.00
2018-07-19T10:38:17.378Z,1.50
2018-07-19T10:40:46.457Z,1.30
2018-07-19T10:43:15.561Z,1.30
2018-07-19T10:45:44.632Z,1.70
2018-07-19T10:48:13.715Z,1.73
2018-07-19T10:50:42.787Z,1.80
2018-07-19T10:53:11.845Z,1.70
2018-07-19T10:55:40.919Z,1.57
2018-07-19T10:58:10.217Z,1.87
2018-07-19T11:00:39.282Z,1.87
2018-07-19T11:03:08.336Z,2.10
2018-07-19T11:05:37.420Z,2.00
2018-07-19T11:08:06.492Z,2.07
2018-07-19T11:10:35.580Z,1.63
2018-07-19T11:13:04.630Z,1.50
2018-07-19T11:15:33.727Z,1.90
2018-07-19T11:18:02.780Z,1.43
2018-07-19T11:20:31.852Z,1.37
2018-07-19T11:23:00.903Z,1.50
2018-07-19T11:25:29.976Z,1.37
2018-07-19T11:27:59.032Z,1.47
2018-07-19T11:30:27.846Z,1.30
2018-07-19T11:32:56.535Z,1.50
2018-07-19T11:35:25.229Z,1.77
2018-07-19T11:37:54.169Z,1.80
2018-07-19T11:40:23.245Z,1.43
2018-07-19T11:42:52.308Z,2.00
2018-07-19T11:45:21.379Z,1.70
2018-07-19T11:47:50.191Z,2.03
2018-07-19T11:50:19.115Z,1.87
2018-07-19T11:52:48.185Z,1.73
2018-07-19T11:55:17.222Z,1.70
2018-07-19T11:57:47.139Z,1.77
2018-07-19T12:00:16.195Z,1.77
2018-07-19T12:02:45.272Z,1.83
2018-07-19T12:05:14.324Z,1.90
2018-07-19T12:07:43.396Z,1.40
2018-07-19T12:10:12.451Z,2.00
2018-07-19T12:12:41.331Z,1.77
2018-07-19T12:15:10.263Z,1.47
2018-07-19T12:17:39.332Z,1.60
2018-07-19T12:20:08.860Z,1.40
2018-07-19T12:22:38.179Z,1.60
2018-07-19T12:25:07.600Z,1.33
2018-07-19T12:27:36.680Z,1.50
2018-07-19T12:30:05.840Z,1.83
2018-07-19T12:32:34.923Z,1.40
2018-07-19T12:35:03.740Z,1.23
2018-07-19T12:37:32.436Z,1.60
2018-07-19T12:40:01.368Z,1.40
2018-07-19T12:42:30.456Z,1.60
2018-07-19T12:44:59.512Z,1.57
2018-07-19T12:47:28.603Z,1.67
2018-07-19T12:49:57.660Z,1.43
2018-07-19T12:52:26.717Z,1.50
2018-07-19T12:54:55.790Z,1.40
2018-07-19T12:57:24.839Z,1.60
2018-07-19T12:59:53.916Z,1.43
2018-07-19T13:02:22.968Z,1.85
2018-07-19T13:04:52.143Z,1.30
2018-07-19T13:07:21.199Z,1.40
2018-07-19T13:09:50.272Z,1.30
2018-07-19T13:12:19.344Z,1.40
2018-07-19T13:14:48.411Z,1.20
2018-07-19T13:17:17.472Z,1.17
2018-07-19T13:19:46.612Z,1.30
2018-07-19T13:22:15.748Z,1.20
2018-07-19T13:24:44.791Z,1.30
2018-07-19T13:27:13.851Z,1.10
2018-07-19T13:29:42.921Z,1.20
2018-07-19T13:32:11.718Z,1.20
2018-07-19T13:34:40.660Z,1.17
2018-07-19T13:37:09.728Z,1.10
2018-07-19T13:39:38.791Z,1.20
2018-07-19T13:42:07.595Z,1.25
2018-07-19T13:44:36.314Z,1.50
2018-07-19T13:47:05.248Z,1.12
2018-07-19T13:49:34.376Z,1.72
2018-07-19T13:52:03.436Z,1.57
2018-07-19T13:54:41.415Z,1.55
2018-07-19T13:57:10.491Z,1.22
2018-07-19T13:59:39.599Z,1.10
2018-07-19T14:02:08.655Z,1.30
2018-07-19T14:04:37.740Z,1.07
2018-07-19T14:07:06.796Z,1.62
2018-07-19T14:09:35.856Z,1.25
2018-07-19T14:12:05.090Z,1.30
2018-07-19T14:14:34.149Z,1.05
2018-07-19T14:17:03.211Z,1.22
2018-07-19T14:19:32.268Z,2.50
2018-07-19T14:22:01.350Z,1.25
2018-07-19T14:24:30.400Z,1.65
2018-07-19T14:26:59.465Z,1.47
2018-07-19T14:29:28.552Z,1.22
2018-07-19T14:31:57.624Z,1.10
2018-07-19T14:34:26.689Z,1.20
2018-07-19T14:36:55.760Z,1.12
2018-07-19T14:39:24.815Z,1.00
2018-07-19T14:41:53.884Z,1.37
2018-07-19T14:44:22.931Z,1.12
2018-07-19T14:46:52.004Z,1.32
2018-07-19T14:49:21.059Z,1.20
2018-07-19T14:51:50.123Z,1.20
2018-07-19T14:54:19.188Z,1.00
2018-07-19T14:56:48.244Z,1.20
2018-07-19T14:59:17.315Z,1.20
2018-07-19T15:01:46.379Z,1.20
2018-07-19T15:04:15.470Z,1.40
2018-07-19T15:06:44.528Z,1.15
2018-07-19T15:09:13.595Z,1.30
2018-07-19T15:11:42.677Z,1.27
2018-07-19T15:14:11.749Z,0.90
2018-07-19T15:16:40.809Z,1.07
2018-07-19T15:19:09.876Z,1.15
2018-07-19T15:21:38.927Z,1.00
2018-07-19T15:24:08.012Z,0.85
2018-07-19T15:26:37.073Z,1.10
2018-07-19T15:29:06.168Z,0.90
2018-07-19T15:31:35.220Z,1.12
2018-07-19T15:34:04.296Z,1.10
2018-07-19T15:36:33.094Z,1.07
2018-07-19T15:39:02.041Z,1.15
2018-07-19T15:41:31.095Z,0.95
2018-07-19T15:44:00.173Z,1.15
2018-07-19T15:46:28.988Z,1.00
2018-07-19T15:48:57.682Z,1.32
2018-07-19T15:51:26.599Z,0.98
2018-07-19T15:53:55.702Z,1.00
2018-07-19T15:56:24.751Z,1.00
2018-07-19T15:58:53.800Z,1.10
2018-07-19T16:01:22.871Z,1.22
2018-07-19T16:03:51.919Z,1.12
2018-07-19T16:06:20.734Z,1.02
2018-07-19T16:08:49.443Z,1.10
2018-07-19T16:11:18.399Z,1.20
2018-07-19T16:13:47.475Z,1.10
2018-07-19T16:16:16.543Z,1.30
2018-07-19T16:18:45.609Z,1.10
2018-07-19T16:21:14.680Z,1.12
2018-07-19T16:23:43.490Z,1.40
2018-07-19T16:26:12.266Z,1.20
2018-07-19T16:28:41.179Z,1.15
2018-07-19T16:31:10.252Z,1.07
2018-07-19T16:33:39.336Z,1.30
2018-07-19T16:36:08.151Z,1.15
2018-07-19T16:38:36.823Z,1.10
2018-07-19T16:41:05.769Z,1.07
2018-07-19T16:43:34.832Z,1.12
2018-07-19T16:46:04.141Z,1.22
2018-07-19T16:48:33.197Z,1.25
2018-07-19T16:51:02.027Z,1.10
2018-07-19T16:53:30.957Z,1.12
2018-07-19T16:56:00.069Z,1.15
2018-07-19T16:58:29.132Z,1.40
2018-07-19T17:00:58.203Z,1.45
2018-07-19T17:03:27.275Z,1.50
2018-07-19T17:05:56.331Z,1.62
2018-07-19T17:08:25.403Z,1.37
2018-07-19T17:10:54.481Z,1.40
2018-07-19T17:13:23.547Z,1.00
2018-07-19T17:15:52.354Z,1.20
2018-07-19T17:18:21.285Z,1.17
2018-07-19T17:20:50.350Z,1.10
2018-07-19T17:23:19.579Z,1.10
2018-07-19T17:25:48.645Z,1.07
2018-07-19T17:28:17.723Z,1.40
2018-07-19T17:30:46.792Z,1.20
2018-07-19T17:33:15.963Z,1.10
2018-07-19T17:35:45.021Z,1.20
2018-07-19T17:38:14.100Z,1.27
2018-07-19T17:40:43.157Z,1.20
2018-07-19T17:43:12.237Z,1.52
2018-07-19T17:45:41.309Z,1.70
2018-07-19T17:48:10.388Z,1.47
2018-07-19T17:50:39.440Z,1.30
2018-07-19T17:53:08.521Z,1.30
2018-07-19T17:55:37.595Z,1.20
2018-07-19T17:58:06.711Z,1.75
2018-07-19T18:00:35.808Z,1.60
2018-07-19T18:03:04.892Z,1.77
2018-07-19T18:05:33.971Z,1.62
2018-07-19T18:08:02.806Z,1.60
2018-07-19T18:10:31.773Z,1.57
2018-07-19T18:13:00.844Z,1.30
2018-07-19T18:15:29.900Z,1.35
2018-07-19T18:17:58.984Z,1.80
2018-07-19T18:20:28.060Z,1.72
2018-07-19T18:22:57.132Z,1.80
2018-07-19T18:25:25.956Z,1.77
2018-07-19T18:27:54.921Z,1.70
2018-07-19T18:30:24.012Z,1.65
2018-07-19T18:32:53.071Z,1.50
2018-07-19T18:35:22.139Z,1.50
2018-07-19T18:37:51.193Z,1.77
2018-07-19T18:40:20.011Z,1.57
2018-07-19T18:42:48.687Z,2.05
2018-07-19T18:45:17.644Z,1.62
2018-07-19T18:47:46.712Z,2.20
2018-07-19T18:50:15.824Z,2.30
2018-07-19T18:52:44.880Z,1.80
2018-07-19T18:55:13.957Z,1.82
2018-07-19T18:57:42.771Z,1.70
2018-07-19T19:00:11.466Z,1.98
2018-07-19T19:02:40.395Z,2.12
2018-07-19T19:05:09.472Z,2.10
2018-07-19T19:07:38.531Z,2.20
2018-07-19T19:10:07.611Z,2.22
2018-07-19T19:12:36.440Z,1.90
2018-07-19T19:15:06.351Z,2.40
2018-07-19T19:17:35.422Z,2.10
2018-07-19T19:20:04.508Z,2.33
2018-07-19T19:22:33.439Z,2.07
2018-07-19T19:25:02.525Z,2.30
2018-07-19T19:27:31.582Z,2.07
2018-07-19T19:30:00.757Z,1.90
2018-07-19T19:32:29.892Z,2.00
2018-07-19T19:34:58.940Z,2.17
2018-07-19T19:37:27.992Z,2.10
2018-07-19T19:39:57.071Z,2.30
2018-07-19T19:42:25.867Z,2.27
2018-07-19T19:44:54.800Z,1.80
2018-07-19T19:47:23.876Z,2.23
2018-07-19T19:49:52.936Z,2.30
2018-07-19T19:52:22.115Z,2.27
2018-07-19T19:54:51.164Z,2.77
2018-07-19T19:57:20.499Z,2.63
2018-07-19T19:59:49.556Z,2.00
2018-07-19T20:02:18.627Z,1.87
2018-07-19T20:04:47.698Z,2.43
2018-07-19T20:07:16.767Z,2.40
2018-07-19T20:09:46.060Z,2.00
2018-07-19T20:12:15.169Z,2.40
2018-07-19T20:14:44.243Z,2.30
2018-07-19T20:17:13.319Z,2.43
2018-07-19T20:19:42.168Z,2.30
2018-07-19T20:22:11.240Z,2.33
2018-07-19T20:24:40.853Z,2.47
2018-07-19T20:27:10.285Z,2.50
2018-07-19T20:29:39.348Z,2.60
2018-07-19T20:32:08.420Z,3.20
2018-07-19T20:34:37.297Z,3.00
2018-07-19T20:37:06.195Z,3.30
2018-07-19T20:39:35.038Z,4.40
2018-07-19T20:42:03.996Z,4.30
2018-07-19T20:44:33.047Z,3.10
2018-07-19T20:47:02.167Z,2.87
2018-07-19T20:49:30.997Z,3.43
2018-07-19T20:51:59.928Z,2.70
2018-07-19T20:54:29.008Z,2.97
2018-07-19T20:56:58.060Z,3.40
2018-07-19T20:59:27.146Z,2.43
2018-07-19T21:01:55.949Z,2.50
2018-07-19T21:04:24.892Z,2.73
2018-07-19T21:06:53.948Z,2.83
2018-07-19T21:09:23.024Z,2.73
2018-07-19T21:11:51.839Z,3.10
2018-07-19T21:14:20.803Z,2.60
2018-07-19T21:16:49.695Z,2.60
2018-07-19T21:19:18.655Z,2.40
2018-07-19T21:21:47.716Z,2.50
2018-07-19T21:24:16.808Z,2.97
2018-07-19T21:26:45.872Z,2.60
2018-07-19T21:29:14.670Z,2.90
2018-07-19T21:31:43.621Z,2.90
2018-07-19T21:34:12.684Z,2.87
2018-07-19T21:36:41.756Z,2.90
2018-07-19T21:39:11.412Z,2.60
2018-07-19T21:41:40.820Z,2.80
2018-07-19T21:44:10.533Z,2.83
2018-07-19T21:46:39.611Z,2.90
2018-07-19T21:49:08.670Z,2.70
2018-07-19T21:51:37.483Z,2.53
2018-07-19T21:54:06.155Z,2.80
2018-07-19T21:56:35.105Z,2.73
2018-07-19T21:59:04.200Z,2.50
2018-07-19T22:01:33.296Z,3.13
2018-07-19T22:04:02.357Z,2.70
2018-07-19T22:06:31.427Z,2.70
2018-07-19T22:09:00.235Z,3.33
2018-07-19T22:11:28.943Z,3.07
2018-07-19T22:13:57.884Z,3.13
2018-07-19T22:16:26.707Z,2.63
2018-07-19T22:18:55.395Z,2.53
2018-07-19T22:21:24.092Z,2.63
2018-07-19T22:23:53.024Z,3.10
2018-07-19T22:26:22.169Z,2.90
2018-07-19T22:28:51.604Z,3.07
2018-07-19T22:31:20.919Z,3.10
2018-07-19T22:33:50.596Z,2.97
2018-07-19T22:36:19.745Z,3.10
2018-07-19T22:38:48.840Z,3.00
2018-07-19T22:41:17.924Z,2.73
2018-07-19T22:43:46.984Z,2.80
2018-07-19T22:46:16.057Z,3.23
2018-07-19T22:48:45.124Z,2.97
2018-07-19T22:51:14.198Z,2.80
2018-07-19T22:53:43.020Z,2.97
2018-07-19T22:56:11.960Z,2.80
2018-07-19T22:58:41.028Z,3.03
2018-07-19T23:01:10.084Z,2.90
2018-07-19T23:03:39.155Z,2.87
2018-07-19T23:06:08.316Z,2.90
2018-07-19T23:08:37.392Z,3.00
2018-07-19T23:11:06.460Z,3.10
2018-07-19T23:13:35.595Z,2.93
2018-07-19T23:16:04.395Z,3.03
2018-07-19T23:18:33.339Z,2.90
2018-07-19T23:21:02.392Z,2.70
2018-07-19T23:23:31.455Z,3.13
2018-07-19T23:26:00.526Z,2.80
2018-07-19T23:28:29.603Z,3.00
2018-07-19T23:30:58.660Z,2.53
2018-07-19T23:33:28.035Z,3.00
2018-07-19T23:36:06.531Z,2.73
2018-07-19T23:38:48.131Z,2.73
2018-07-19T23:41:23.267Z,2.67
2018-07-19T23:43:56.173Z,2.93
2018-07-19T23:46:29.363Z,2.80
2018-07-19T23:49:02.664Z,3.00
2018-07-19T23:51:31.719Z,2.90
2018-07-19T23:54:00.807Z,3.47
2018-07-19T23:56:29.864Z,3.17
2018-07-19T23:58:58.685Z,3.47
